KOPL/OPL METAR and TAF weather

Enter ICAO airport designator
Station Type Date Time Source
KOPL METAR 2020/09/27 02:35 UTC NOAA

KOPL 270235Z AUTO 00000KT 10SM SCT070 22/19 A2991 RMK AO2 T02200192


Station Type Date Time Source
KOPL Decoded METAR 2020/09/27 02:35 UTC NOAA

Station name not available
Sep 26, 2020 - 10:35 PM EDT / 2020.09.27 0235 UTC
Wind: Calm:0
Visibility: 10 mile(s):0
Sky conditions: partly cloudy
Temperature: 71.6 F (22.0 C)
Dew Point: 66.6 F (19.2 C)
Relative Humidity: 84%
Pressure (altimeter): 29.91 in. Hg (1012 hPa)
ob: KOPL 270235Z AUTO 00000KT 10SM SCT070 22/19 A2991 RMK AO2 T02200192
cycle: 2

Station Type Date Time Source
KOPL TAF UTC NOAA

Error!

Example: see airport list